Time;durP1;ratioP1;P1;durP2;ratioP2;P2;SDS_P1;SDS_P2;PMS_P1;PMS_P2;Temp;Humidity;BMP_temperature;BMP_pressure;BME280_temperature;BME280_humidity;BME280_pressure;Samples;Min_cycle;Max_cycle;Signal;HPM_P1;HPM_P2
2023/06/16 00:01:31;;;;;;;6.70;5.80;;;;;;;21.93;100.00;99482.13;4983970;28;20383;-75
2023/06/16 00:04:00;;;;;;;5.95;5.45;;;;;;;21.92;100.00;99483.16;4981499;28;20407;-74
2023/06/16 00:06:29;;;;;;;6.82;6.18;;;;;;;21.87;100.00;99480.28;4982929;28;20033;-74
2023/06/16 00:08:56;;;;;;;7.18;6.55;;;;;;;21.79;100.00;99476.03;4985595;28;20387;-74
2023/06/16 00:11:23;;;;;;;6.82;6.32;;;;;;;21.77;100.00;99480.78;4984217;28;20030;-74
2023/06/16 00:13:50;;;;;;;7.18;6.43;;;;;;;21.82;100.00;99477.44;4986102;28;20030;-74
2023/06/16 00:16:19;;;;;;;6.72;6.13;;;;;;;21.84;100.00;99483.44;4986111;28;20019;-74
2023/06/16 00:18:53;;;;;;;7.65;6.95;;;;;;;21.76;100.00;99481.81;4987852;28;20433;-75
2023/06/16 00:21:25;;;;;;;7.30;6.57;;;;;;;21.65;100.00;99477.13;4987026;28;20430;-74
2023/06/16 00:23:51;;;;;;;7.43;6.72;;;;;;;21.63;100.00;99477.34;4985400;28;20046;-74
2023/06/16 00:26:17;;;;;;;7.35;6.70;;;;;;;21.64;100.00;99479.00;4983847;28;20049;-74
2023/06/16 00:28:43;;;;;;;7.70;6.90;;;;;;;21.61;100.00;99476.75;4989477;28;20080;-74
2023/06/16 00:31:09;;;;;;;9.77;7.30;;;;;;;21.60;100.00;99483.16;4983900;28;20034;-74
2023/06/16 00:33:35;;;;;;;7.63;6.93;;;;;;;21.55;100.00;99479.47;4987356;28;20100;-74
2023/06/16 00:36:01;;;;;;;8.48;6.65;;;;;;;21.59;100.00;99478.81;4983689;28;20054;-74
2023/06/16 00:38:28;;;;;;;7.28;6.53;;;;;;;21.61;100.00;99473.25;4987295;28;20022;-73
2023/06/16 00:40:54;;;;;;;7.40;6.70;;;;;;;21.64;100.00;99470.94;4984365;28;20125;-75
2023/06/16 00:43:19;;;;;;;7.20;6.50;;;;;;;21.65;100.00;99472.59;4986455;28;20109;-75
2023/06/16 00:45:45;;;;;;;8.68;7.88;;;;;;;21.64;100.00;99473.63;4983061;28;20051;-74
2023/06/16 00:48:11;;;;;;;7.32;6.55;;;;;;;21.58;100.00;99474.50;4987972;28;20042;-74
2023/06/16 00:50:36;;;;;;;7.40;6.32;;;;;;;21.52;100.00;99480.72;4983561;28;20431;-74
2023/06/16 00:53:02;;;;;;;7.28;6.50;;;;;;;21.38;100.00;99481.84;4986864;28;20030;-73
2023/06/16 00:55:29;;;;;;;7.95;7.10;;;;;;;21.30;100.00;99476.72;4962438;28;20047;-74
2023/06/16 00:57:54;;;;;;;10.70;6.90;;;;;;;21.24;100.00;99481.06;4985755;28;20034;-74
2023/06/16 01:00:21;;;;;;;10.63;7.13;;;;;;;21.10;100.00;99492.84;4976888;28;20035;-74
2023/06/16 01:02:47;;;;;;;7.60;7.00;;;;;;;21.05;100.00;99489.16;4981315;28;20044;-75
2023/06/16 01:05:16;;;;;;;6.97;6.43;;;;;;;20.84;100.00;99482.22;4981933;28;20389;-74
2023/06/16 01:07:59;;;;;;;7.05;6.43;;;;;;;20.85;100.00;99467.78;4985779;28;20053;-74
2023/06/16 01:10:41;;;;;;;7.75;6.78;;;;;;;20.84;100.00;99469.63;4975431;28;20109;-73
2023/06/16 01:13:25;;;;;;;7.85;7.03;;;;;;;20.87;100.00;99471.06;4982978;28;20395;-73
2023/06/16 01:15:52;;;;;;;7.70;6.93;;;;;;;20.87;100.00;99472.91;4989131;28;20038;-74
2023/06/16 01:18:25;;;;;;;8.48;7.15;;;;;;;20.89;100.00;99473.53;4966377;28;20092;-74
2023/06/16 01:20:57;;;;;;;7.38;6.65;;;;;;;20.94;100.00;99476.41;4988209;28;20105;-74
2023/06/16 01:23:47;;;;;;;7.22;6.63;;;;;;;20.84;100.00;99472.31;4983888;28;20026;-74
2023/06/16 01:26:14;;;;;;;7.78;6.95;;;;;;;20.81;100.00;99471.91;4981651;28;20039;-76
2023/06/16 01:28:42;;;;;;;6.88;6.20;;;;;;;20.84;100.00;99466.97;4968911;28;20104;-74
2023/06/16 01:31:12;;;;;;;6.90;6.28;;;;;;;20.90;100.00;99459.94;4983500;28;20117;-74
2023/06/16 01:33:39;;;;;;;7.32;6.55;;;;;;;20.94;100.00;99460.31;4985939;28;20055;-74
2023/06/16 01:36:05;;;;;;;7.22;6.18;;;;;;;20.97;100.00;99459.91;4984301;28;20439;-73
2023/06/16 01:38:32;;;;;;;6.68;6.07;;;;;;;21.03;100.00;99467.09;4986522;28;20034;-73
2023/06/16 01:41:01;;;;;;;6.63;6.03;;;;;;;21.06;100.00;99463.97;4983840;28;20027;-74
2023/06/16 01:43:29;;;;;;;6.65;6.05;;;;;;;21.01;100.00;99458.44;4984212;28;20037;-73
2023/06/16 01:45:58;;;;;;;7.05;6.45;;;;;;;20.99;100.00;99452.44;4983878;28;20034;-72
2023/06/16 01:48:24;;;;;;;7.32;6.63;;;;;;;20.95;100.00;99451.22;4979840;28;20447;-73
2023/06/16 01:50:51;;;;;;;7.43;6.38;;;;;;;20.89;100.00;99449.41;4985387;28;20026;-74
2023/06/16 01:53:16;;;;;;;9.55;7.10;;;;;;;20.82;100.00;99442.19;4986125;28;20088;-74
2023/06/16 01:55:50;;;;;;;9.50;7.50;;;;;;;20.82;100.00;99442.19;4982876;28;20050;-73
2023/06/16 01:58:17;;;;;;;7.65;7.05;;;;;;;20.79;100.00;99437.25;4992531;28;20402;-74
2023/06/16 02:01:07;;;;;;;8.25;7.22;;;;;;;20.79;100.00;99439.91;4987699;28;20386;-74
2023/06/16 02:03:40;;;;;;;7.38;6.78;;;;;;;20.82;100.00;99450.25;4986538;28;20038;-74
2023/06/16 02:06:11;;;;;;;7.60;6.90;;;;;;;20.84;100.00;99440.13;4989935;28;20030;-74
2023/06/16 02:08:41;;;;;;;7.38;6.68;;;;;;;20.90;100.00;99443.00;4988604;28;20399;-74
2023/06/16 02:11:07;;;;;;;7.90;7.13;;;;;;;20.93;100.00;99429.97;4989694;28;20031;-74
2023/06/16 02:13:33;;;;;;;8.45;7.03;;;;;;;20.94;100.00;99434.31;4987115;28;20160;-72
2023/06/16 02:15:59;;;;;;;11.68;7.40;;;;;;;20.91;100.00;99439.28;4976968;28;20045;-73
2023/06/16 02:18:27;;;;;;;7.90;7.20;;;;;;;20.90;100.00;99434.97;4983548;28;20031;-73
2023/06/16 02:20:54;;;;;;;7.95;7.15;;;;;;;20.86;100.00;99437.22;4986882;28;20034;-72
2023/06/16 02:23:23;;;;;;;7.73;6.80;;;;;;;20.84;100.00;99440.13;4986559;28;20486;-73
2023/06/16 02:25:49;;;;;;;10.98;7.65;;;;;;;20.82;100.00;99436.84;4990036;28;20036;-74
2023/06/16 02:28:14;;;;;;;11.88;7.10;;;;;;;20.79;100.00;99437.25;4986332;28;20035;-73
2023/06/16 02:30:40;;;;;;;7.57;6.90;;;;;;;20.82;100.00;99430.66;4988321;28;20042;-73
2023/06/16 02:33:06;;;;;;;7.97;7.22;;;;;;;20.73;100.00;99437.28;4988350;28;20026;-73
2023/06/16 02:35:32;;;;;;;8.32;7.43;;;;;;;20.60;100.00;99432.78;4985116;28;20057;-74
2023/06/16 02:38:00;;;;;;;8.60;7.80;;;;;;;20.60;100.00;99443.50;4988575;28;20034;-73
2023/06/16 02:40:26;;;;;;;13.60;7.97;;;;;;;20.47;100.00;99442.69;4990081;28;20466;-74
2023/06/16 02:42:51;;;;;;;8.55;7.75;;;;;;;20.41;100.00;99444.38;4970902;28;20059;-74
2023/06/16 02:45:17;;;;;;;10.27;7.70;;;;;;;20.41;100.00;99449.72;4987454;28;20442;-74
2023/06/16 02:47:43;;;;;;;8.07;7.38;;;;;;;20.25;100.00;99466.19;4970513;28;20352;-74
2023/06/16 02:50:09;;;;;;;7.47;6.78;;;;;;;20.25;100.00;99468.88;4988725;28;20033;-73
2023/06/16 02:52:36;;;;;;;8.75;7.95;;;;;;;20.23;100.00;99462.91;4970384;28;20129;-74
2023/06/16 02:55:05;;;;;;;8.07;7.25;;;;;;;20.15;100.00;99460.41;4989534;28;20375;-74
2023/06/16 02:57:40;;;;;;;7.47;6.88;;;;;;;20.13;100.00;99462.50;4970763;28;20446;-73
2023/06/16 03:00:09;;;;;;;8.52;7.70;;;;;;;20.15;100.00;99460.41;4968171;28;20038;-73
2023/06/16 03:02:38;;;;;;;7.63;6.80;;;;;;;20.13;100.00;99459.81;4991121;28;20129;-74
2023/06/16 03:05:04;;;;;;;8.43;7.63;;;;;;;20.13;100.00;99463.31;4987935;28;20125;-74
2023/06/16 03:07:35;;;;;;;12.52;8.55;;;;;;;20.02;100.00;99467.44;4965442;28;20171;-74
2023/06/16 03:10:03;;;;;;;11.57;8.60;;;;;;;19.79;100.00;99469.66;4985540;28;20391;-73
2023/06/16 03:12:41;;;;;;;8.98;8.18;;;;;;;19.66;100.00;99477.69;4985640;28;20483;-73
2023/06/16 03:15:08;;;;;;;11.35;7.68;;;;;;;19.70;100.00;99478.94;4973879;28;20041;-73
2023/06/16 03:17:35;;;;;;;8.00;7.30;;;;;;;19.69;100.00;99479.97;4987809;28;20470;-73
2023/06/16 03:20:01;;;;;;;8.35;7.40;;;;;;;19.72;100.00;99478.75;4985489;28;20061;-73
2023/06/16 03:22:36;;;;;;;7.40;6.70;;;;;;;19.80;100.00;99484.72;4988774;28;20042;-74
2023/06/16 03:25:04;;;;;;;7.68;6.97;;;;;;;19.86;100.00;99488.41;4985347;28;20034;-74
2023/06/16 03:27:40;;;;;;;7.88;7.10;;;;;;;19.90;100.00;99487.84;4967711;28;20089;-72
2023/06/16 03:30:08;;;;;;;7.90;7.30;;;;;;;19.98;100.00;99487.63;4969080;28;20434;-72
2023/06/16 03:32:54;;;;;;;8.30;7.28;;;;;;;20.06;100.00;99496.50;4985006;28;20026;-74
2023/06/16 03:35:20;;;;;;;7.07;6.43;;;;;;;20.11;100.00;99502.88;4969771;28;20125;-72
2023/06/16 03:37:46;;;;;;;7.63;6.85;;;;;;;20.14;100.00;99496.31;4967389;28;20062;-73
2023/06/16 03:40:14;;;;;;;7.20;6.60;;;;;;;20.07;100.00;99498.16;5003418;23;20600;-80
2023/06/16 03:42:39;;;;;;;9.68;8.23;;;;;;;19.95;100.00;99500.59;5010161;28;20382;-80
2023/06/16 03:45:07;;;;;;;9.05;7.68;;;;;;;19.72;100.00;99502.84;5010144;28;20120;-80
2023/06/16 03:47:32;;;;;;;8.18;7.45;;;;;;;19.74;100.00;99496.22;5011600;28;20037;-81
2023/06/16 03:49:59;;;;;;;10.18;7.22;;;;;;;19.80;100.00;99498.09;5011528;28;20171;-81
2023/06/16 03:52:25;;;;;;;7.95;7.32;;;;;;;19.87;100.00;99504.28;5011470;28;20040;-79
2023/06/16 03:54:51;;;;;;;7.65;7.00;;;;;;;19.94;100.00;99502.47;5009992;28;20042;-80
2023/06/16 03:57:17;;;;;;;8.15;7.45;;;;;;;20.01;100.00;99503.28;5010455;28;20036;-80
2023/06/16 03:59:42;;;;;;;9.10;8.02;;;;;;;20.06;100.00;99504.53;5010231;28;20069;-79
2023/06/16 04:02:09;;;;;;;8.32;6.72;;;;;;;20.05;100.00;99509.06;5009721;28;20034;-79
2023/06/16 04:04:43;;;;;;;10.93;7.03;;;;;;;20.01;100.00;99514.00;5009722;28;20153;-80
2023/06/16 04:07:09;;;;;;;9.40;8.52;;;;;;;19.95;100.00;99509.47;5010267;28;20030;-80
2023/06/16 04:09:34;;;;;;;8.27;7.55;;;;;;;19.93;100.00;99510.69;5006717;28;20376;-79
2023/06/16 04:12:00;;;;;;;10.90;7.00;;;;;;;19.80;100.00;99514.16;5011179;28;20048;-80
2023/06/16 04:14:25;;;;;;;8.60;6.63;;;;;;;19.68;100.00;99518.47;5007615;28;20127;-80
2023/06/16 04:16:51;;;;;;;7.03;6.43;;;;;;;19.51;100.00;99519.84;5009751;28;20034;-80
2023/06/16 04:19:20;;;;;;;10.07;6.75;;;;;;;19.27;100.00;99520.34;5009739;28;20030;-80
2023/06/16 04:21:47;;;;;;;10.20;6.90;;;;;;;19.12;100.00;99515.97;5010297;28;20037;-79
2023/06/16 04:24:15;;;;;;;8.27;7.45;;;;;;;19.06;100.00;99514.09;5009567;28;20030;-79
2023/06/16 04:26:42;;;;;;;8.50;7.70;;;;;;;19.01;100.00;99527.22;5009790;28;20088;-79
2023/06/16 04:29:08;;;;;;;10.93;7.80;;;;;;;18.98;100.00;99530.28;5009914;28;20049;-79
2023/06/16 04:31:38;;;;;;;9.15;7.72;;;;;;;18.94;100.00;99529.03;5009315;28;20038;-80
2023/06/16 04:34:04;;;;;;;8.85;8.00;;;;;;;18.93;100.00;99532.72;5009460;28;20041;-81
2023/06/16 04:36:33;;;;;;;7.68;7.07;;;;;;;18.96;100.00;99529.69;5009139;28;20045;-78
2023/06/16 04:39:03;;;;;;;12.18;7.57;;;;;;;19.05;100.00;99533.84;5010060;28;20132;-79
2023/06/16 04:41:29;;;;;;;8.00;7.20;;;;;;;19.12;100.00;99534.69;5010191;28;20040;-80
2023/06/16 04:43:55;;;;;;;8.18;7.57;;;;;;;19.12;100.00;99531.19;5013058;28;20030;-81
2023/06/16 04:46:21;;;;;;;7.95;7.35;;;;;;;19.17;100.00;99542.94;5012801;28;20064;-81
2023/06/16 04:48:47;;;;;;;10.13;8.10;;;;;;;19.29;100.00;99550.41;5012616;28;20075;-80
2023/06/16 04:51:13;;;;;;;8.70;7.90;;;;;;;19.39;100.00;99550.84;4996382;28;20101;-80
2023/06/16 04:53:39;;;;;;;9.60;7.30;;;;;;;19.44;100.00;99545.75;5029858;28;20485;-79
2023/06/16 04:56:05;;;;;;;9.68;8.70;;;;;;;19.49;100.00;99548.69;5012598;28;20032;-80
2023/06/16 04:58:31;;;;;;;10.55;8.45;;;;;;;19.44;100.00;99549.22;5012304;28;20026;-79
2023/06/16 05:00:57;;;;;;;11.38;8.63;;;;;;;19.44;100.00;99548.44;5030443;28;20036;-80
2023/06/16 05:03:22;;;;;;;9.80;8.38;;;;;;;19.37;100.00;99552.94;5011793;28;20029;-80
2023/06/16 05:05:48;;;;;;;9.27;8.38;;;;;;;19.39;100.00;99550.84;4995869;28;20489;-80
2023/06/16 05:08:13;;;;;;;8.48;7.63;;;;;;;19.50;100.00;99553.00;5012432;28;20030;-80
2023/06/16 05:10:40;;;;;;;8.38;7.57;;;;;;;19.57;100.00;99559.19;5008789;28;20363;-80
2023/06/16 05:13:05;;;;;;;11.00;8.07;;;;;;;19.69;100.00;99557.59;5012496;28;20366;-80
2023/06/16 05:15:31;;;;;;;8.27;7.47;;;;;;;19.74;100.00;99556.97;5012165;28;20037;-80
2023/06/16 05:17:57;;;;;;;8.73;7.82;;;;;;;19.75;100.00;99562.16;5012814;28;20021;-81
2023/06/16 05:20:23;;;;;;;10.32;8.18;;;;;;;19.81;100.00;99561.34;5008529;28;20369;-80
2023/06/16 05:22:49;;;;;;;9.00;7.75;;;;;;;19.75;100.00;99556.78;5012238;28;20026;-81
2023/06/16 05:25:15;;;;;;;7.80;7.18;;;;;;;19.80;100.00;99556.19;5011823;28;20131;-80
2023/06/16 05:27:40;;;;;;;7.70;7.10;;;;;;;19.84;100.00;99552.91;5012086;28;20038;-80
2023/06/16 05:30:07;;;;;;;8.80;7.88;;;;;;;19.89;100.00;99558.50;5012232;28;20389;-79
2023/06/16 05:32:32;;;;;;;7.82;7.07;;;;;;;19.91;100.00;99559.09;5014567;28;20045;-78
2023/06/16 05:34:58;;;;;;;8.30;7.60;;;;;;;19.99;100.00;99569.63;5014284;28;20433;-79
2023/06/16 05:37:26;;;;;;;8.65;7.85;;;;;;;20.08;100.00;99566.78;5015516;28;20029;-79
2023/06/16 05:39:52;;;;;;;10.40;7.68;;;;;;;20.17;100.00;99571.72;5015893;28;20044;-78
2023/06/16 05:42:19;;;;;;;9.48;8.38;;;;;;;20.28;100.00;99573.78;5016343;28;20040;-78
2023/06/16 05:44:45;;;;;;;11.63;8.65;;;;;;;20.39;100.00;99580.41;5016071;28;20064;-78
2023/06/16 05:47:12;;;;;;;9.52;8.63;;;;;;;20.48;100.00;99579.19;5016729;28;20036;-78
2023/06/16 05:49:38;;;;;;;9.93;8.90;;;;;;;20.53;100.00;99570.53;5015645;28;20378;-79
2023/06/16 05:52:05;;;;;;;8.90;7.68;;;;;;;20.61;100.00;99568.47;5015990;28;20125;-79
2023/06/16 05:54:33;;;;;;;9.48;8.65;;;;;;;20.68;100.00;99580.00;5015412;28;20064;-81
2023/06/16 05:57:00;;;;;;;9.05;8.00;;;;;;;20.71;100.00;99581.47;5016260;28;20021;-80
2023/06/16 05:59:26;;;;;;;9.52;8.70;;;;;;;20.71;100.00;99584.97;5011537;28;20033;-78
2023/06/16 06:01:53;;;;;;;13.45;9.27;;;;;;;20.61;100.00;99581.88;5032258;28;20029;-78
2023/06/16 06:04:32;;;;;;;11.85;10.15;;;;;;;20.57;100.00;99593.22;5012914;28;20451;-76
2023/06/16 06:07:01;;;;;;;13.50;9.55;;;;;;;20.59;100.00;99597.34;5030387;28;20049;-77
2023/06/16 06:09:29;;;;;;;13.40;9.07;;;;;;;20.61;100.00;99599.84;5014558;28;20026;-76
2023/06/16 06:11:54;;;;;;;12.52;9.85;;;;;;;20.66;100.00;99598.19;5013489;28;20040;-75
2023/06/16 06:14:21;;;;;;;10.90;9.50;;;;;;;20.68;100.00;99600.63;5014902;28;20029;-77
2023/06/16 06:16:46;;;;;;;11.77;10.60;;;;;;;20.70;100.00;99603.94;5013018;28;20029;-75
2023/06/16 06:19:12;;;;;;;10.57;9.48;;;;;;;20.68;100.00;99604.13;5030057;28;20504;-75
2023/06/16 06:21:39;;;;;;;11.55;10.30;;;;;;;20.70;100.00;99599.41;5012469;28;20136;-75
2023/06/16 06:24:05;;;;;;;10.80;9.75;;;;;;;20.70;100.00;99604.78;5002272;28;20033;-76
2023/06/16 06:26:32;;;;;;;12.98;9.88;;;;;;;20.64;100.00;99600.22;5015213;28;20112;-77
2023/06/16 06:28:59;;;;;;;10.10;9.02;;;;;;;20.71;100.00;99601.06;5013657;28;20041;-76
2023/06/16 06:31:25;;;;;;;10.85;9.75;;;;;;;20.81;100.00;99600.63;5013436;28;20071;-77
2023/06/16 06:33:51;;;;;;;13.63;10.27;;;;;;;20.84;100.00;99598.38;5015289;28;20030;-77
2023/06/16 06:36:25;;;;;;;11.18;10.15;;;;;;;20.87;100.00;99607.03;5032656;28;20032;-77
2023/06/16 06:38:51;;;;;;;11.02;10.00;;;;;;;20.98;100.00;99601.03;5013737;28;20102;-76
2023/06/16 06:41:17;;;;;;;12.65;10.45;;;;;;;21.06;100.00;99615.06;5031974;28;20048;-78
2023/06/16 06:43:43;;;;;;;12.00;10.35;;;;;;;21.16;100.00;99614.66;5013940;28;20104;-77
2023/06/16 06:46:13;;;;;;;12.85;10.05;;;;;;;21.16;100.00;99620.00;5011166;28;20112;-77
2023/06/16 06:48:42;;;;;;;14.85;10.60;;;;;;;21.11;100.00;99611.75;5014834;28;20037;-78
2023/06/16 06:51:13;;;;;;;11.32;10.20;;;;;;;21.14;100.00;99616.69;5014566;28;20540;-78
2023/06/16 06:53:38;;;;;;;11.07;10.07;;;;;;;21.16;100.00;99615.47;5031667;28;20045;-79
2023/06/16 06:56:04;;;;;;;12.75;9.95;;;;;;;21.28;100.00;99618.34;5013840;28;20040;-79
2023/06/16 06:58:31;;;;;;;11.20;10.15;;;;;;;21.32;100.00;99611.53;4997910;28;20096;-77
2023/06/16 07:00:57;;;;;;;13.57;9.48;;;;;;;21.41;100.00;99612.94;5031662;28;20029;-77
2023/06/16 07:03:22;;;;;;;12.63;9.18;;;;;;;21.43;100.00;99618.94;5031772;28;20026;-77
2023/06/16 07:05:48;;;;;;;12.60;9.65;;;;;;;21.49;100.00;99623.47;5032356;28;20045;-78
2023/06/16 07:08:13;;;;;;;9.50;8.70;;;;;;;21.59;100.00;99623.00;5031916;28;20393;-76
2023/06/16 07:10:39;;;;;;;13.77;10.40;;;;;;;21.57;100.00;99631.25;5030783;28;20041;-77
2023/06/16 07:13:06;;;;;;;10.52;9.52;;;;;;;21.68;100.00;99626.28;5031726;28;20057;-78
2023/06/16 07:15:32;;;;;;;11.80;10.10;;;;;;;21.70;100.00;99621.50;5026897;28;20038;-77
2023/06/16 07:17:57;;;;;;;14.85;10.07;;;;;;;21.74;100.00;99623.53;5030281;28;20029;-78
2023/06/16 07:20:23;;;;;;;10.63;9.63;;;;;;;21.77;100.00;99622.31;5030609;28;20074;-79
2023/06/16 07:29:11;;;;;;;13.45;10.13;;;;;;;21.98;100.00;99635.47;5026910;28;20134;-75
2023/06/16 07:31:36;;;;;;;11.80;8.85;;;;;;;22.08;100.00;99625.09;5037056;28;20083;-76
2023/06/16 07:34:01;;;;;;;11.55;8.77;;;;;;;22.21;100.00;99633.06;5013993;28;20518;-75
2023/06/16 07:36:27;;;;;;;9.70;8.65;;;;;;;22.35;100.00;99631.94;5043924;28;20033;-74
2023/06/16 07:38:53;;;;;;;9.80;9.00;;;;;;;22.46;100.00;99633.94;5031636;28;20060;-75
2023/06/16 07:41:19;;;;;;;9.88;8.90;;;;;;;22.50;100.00;99633.50;5038142;28;20040;-77
2023/06/16 07:43:47;;;;;;;10.30;9.32;;;;;;;22.54;100.00;99632.03;5037251;28;20037;-77
2023/06/16 07:46:12;;;;;;;9.18;8.27;;;;;;;22.64;100.00;99635.03;5019604;28;20044;-77
2023/06/16 07:48:38;;;;;;;10.20;9.10;;;;;;;22.69;100.00;99627.97;5038308;28;20170;-75
2023/06/16 07:51:03;;;;;;;11.05;9.10;;;;;;;22.78;100.00;99625.88;5044269;28;20355;-76
2023/06/16 07:53:29;;;;;;;9.85;8.23;;;;;;;22.90;100.00;99634.88;5042200;28;20029;-75
2023/06/16 07:55:54;;;;;;;10.23;8.38;;;;;;;23.02;100.00;99622.34;5037121;28;20380;-76
2023/06/16 07:58:22;;;;;;;12.80;8.27;;;;;;;23.13;100.00;99618.91;5038813;28;20092;-77
2023/06/16 08:00:47;;;;;;;10.13;9.10;;;;;;;23.26;100.00;99624.19;5041820;28;20034;-74
2023/06/16 08:03:13;;;;;;;9.27;8.45;;;;;;;23.38;100.00;99615.34;5022422;28;20055;-74
2023/06/16 08:05:38;;;;;;;7.97;7.28;;;;;;;23.48;100.00;99615.69;5042087;28;20033;-74
2023/06/16 08:08:04;;;;;;;13.38;7.90;;;;;;;23.57;100.00;99619.69;5036036;28;20032;-74
2023/06/16 08:10:30;;;;;;;10.48;9.30;;;;;;;23.63;100.00;99613.41;5023097;28;20481;-74
2023/06/16 08:12:55;;;;;;;9.45;8.18;;;;;;;23.71;100.00;99613.13;5040373;28;20118;-74
2023/06/16 08:15:21;;;;;;;13.70;9.98;;;;;;;23.68;100.00;99611.69;5019315;28;20036;-75
2023/06/16 08:17:46;;;;;;;9.70;8.70;;;;;;;23.68;100.00;99616.25;5036586;28;20084;-74
2023/06/16 08:20:12;;;;;;;12.35;10.10;;;;;;;23.68;100.00;99616.25;5038109;28;20107;-76
2023/06/16 08:22:37;;;;;;;13.10;10.68;;;;;;;23.67;100.00;99609.25;5038350;28;20095;-75
2023/06/16 08:25:04;;;;;;;11.90;10.07;;;;;;;23.72;100.00;99605.84;5041073;28;20029;-76
2023/06/16 08:27:30;;;;;;;10.32;9.18;;;;;;;23.79;100.00;99604.72;5037121;28;20042;-76
2023/06/16 08:29:55;;;;;;;11.50;10.30;;;;;;;23.85;100.00;99609.22;5041393;28;20400;-77
2023/06/16 08:32:20;;;;;;;11.57;10.48;;;;;;;23.80;100.00;99611.75;5039340;28;20373;-76
2023/06/16 08:34:46;;;;;;;14.07;11.57;;;;;;;23.83;100.00;99603.22;5032562;28;20044;-74
2023/06/16 08:37:11;;;;;;;14.80;13.23;;;;;;;23.82;100.00;99598.88;5034818;28;20022;-77
2023/06/16 08:39:37;;;;;;;14.15;12.60;;;;;;;23.83;100.00;99602.41;5038585;28;20095;-76
2023/06/16 08:42:03;;;;;;;14.23;12.80;;;;;;;23.82;100.00;99595.34;5032365;28;20101;-77
2023/06/16 08:44:32;;;;;;;15.32;13.73;;;;;;;23.85;100.00;99590.34;5039636;28;20033;-76
2023/06/16 08:46:58;;;;;;;13.05;11.75;;;;;;;23.91;100.00;99600.22;5024074;28;20112;-76
2023/06/16 08:49:24;;;;;;;14.30;12.50;;;;;;;23.90;100.00;99590.50;5038768;28;20116;-77
2023/06/16 08:51:52;;;;;;;14.00;11.38;;;;;;;23.90;100.00;99582.41;5037310;28;20108;-76
2023/06/16 08:54:25;;;;;;;12.68;11.40;;;;;;;23.98;100.00;99584.75;5041681;28;20109;-77
2023/06/16 08:56:51;;;;;;;12.95;11.70;;;;;;;24.05;100.00;99582.78;5020826;28;20058;-77
2023/06/16 08:59:22;;;;;;;13.52;11.95;;;;;;;24.08;100.00;99579.66;5043426;28;20090;-75
2023/06/16 09:01:49;;;;;;;13.48;11.00;;;;;;;24.14;100.00;99582.47;5042637;28;20030;-76
2023/06/16 09:04:15;;;;;;;12.85;11.55;;;;;;;24.20;100.00;99587.81;5035138;28;20341;-75
2023/06/16 09:06:48;;;;;;;13.98;11.25;;;;;;;24.22;100.00;99579.47;5039530;28;20112;-75
2023/06/16 09:09:16;;;;;;;12.20;10.95;;;;;;;24.28;100.00;99583.94;5023356;28;20037;-75
2023/06/16 09:11:41;;;;;;;12.60;10.85;;;;;;;24.31;100.00;99578.09;5038779;28;20036;-76
2023/06/16 09:14:14;;;;;;;12.52;10.75;;;;;;;24.35;100.00;99573.88;5023548;28;20025;-75
2023/06/16 09:16:40;;;;;;;11.63;10.48;;;;;;;24.36;100.00;99575.53;5031978;28;20798;-75
2023/06/16 09:19:08;;;;;;;12.25;11.02;;;;;;;24.42;100.00;99580.00;5036189;28;20040;-76
2023/06/16 09:21:33;;;;;;;11.73;10.65;;;;;;;24.46;100.00;99575.78;5033212;28;20076;-75
2023/06/16 09:24:00;;;;;;;14.57;10.32;;;;;;;24.50;100.00;99568.88;5037016;28;20112;-75
2023/06/16 09:26:33;;;;;;;9.98;8.98;;;;;;;24.55;100.00;99574.41;5039286;28;20037;-75
2023/06/16 09:28:58;;;;;;;12.18;10.60;;;;;;;24.59;100.00;99570.16;5032830;28;20040;-77
2023/06/16 09:31:28;;;;;;;11.18;9.55;;;;;;;24.63;100.00;99565.94;5028595;28;20040;-76
2023/06/16 09:34:04;;;;;;;11.27;10.18;;;;;;;24.64;100.00;99567.59;5019511;28;20029;-77
2023/06/16 09:36:30;;;;;;;10.00;9.02;;;;;;;24.70;100.00;99561.25;5033348;28;20025;-77
2023/06/16 09:38:59;;;;;;;10.30;9.38;;;;;;;24.74;100.00;99564.34;5041603;28;20104;-77
2023/06/16 09:41:25;;;;;;;10.50;9.55;;;;;;;24.74;100.00;99557.03;5035078;28;20037;-77
2023/06/16 09:43:51;;;;;;;14.60;9.57;;;;;;;24.78;100.00;99555.53;5038115;28;20433;-77
2023/06/16 09:46:18;;;;;;;11.48;10.38;;;;;;;24.82;100.00;99559.38;5031748;28;20216;-77
2023/06/16 09:48:48;;;;;;;11.35;8.45;;;;;;;24.87;100.00;99556.81;5038447;28;20087;-77
2023/06/16 09:51:18;;;;;;;9.30;8.50;;;;;;;24.94;100.00;99555.88;5018760;28;20377;-78
2023/06/16 09:53:47;;;;;;;8.30;7.60;;;;;;;25.01;100.00;99552.03;5021126;28;20140;-78
2023/06/16 09:56:14;;;;;;;11.23;9.03;;;;;;;25.07;100.00;99550.25;5038572;28;20648;-79
2023/06/16 09:58:41;;;;;;;11.82;9.45;;;;;;;25.09;100.00;99548.16;5040854;28;20477;-77
2023/06/16 10:01:10;;;;;;;13.77;9.32;;;;;;;25.11;100.00;99554.09;5018757;28;20033;-78
2023/06/16 10:03:41;;;;;;;10.73;9.63;;;;;;;25.12;100.00;99553.06;5039302;28;20045;-77
2023/06/16 10:06:20;;;;;;;10.05;9.07;;;;;;;25.15;100.00;99555.31;5039023;28;20054;-77
2023/06/16 10:08:51;;;;;;;10.27;8.85;;;;;;;25.20;100.00;99550.81;5018963;28;20404;-77
2023/06/16 10:11:18;;;;;;;16.95;9.93;;;;;;;25.16;100.00;99548.81;5020459;28;20087;-79
2023/06/16 10:13:51;;;;;;;8.80;7.10;;;;;;;25.24;100.00;99541.19;5029630;28;19922;-77
2023/06/16 10:16:17;;;;;;;;;;;;;;;25.29;100.00;99548.56;5040016;28;19944;-79
2023/06/16 10:18:45;;;;;;;;;;;;;;;25.36;100.00;99538.44;5038923;28;20370;-80
2023/06/16 10:21:11;;;;;;;;;;;;;;;25.41;100.00;99541.25;5038645;28;20292;-79
2023/06/16 10:23:36;;;;;;;;;;;;;;;25.43;100.00;99536.44;5041189;28;20063;-78
2023/06/16 10:26:03;;;;;;;;;;;;;;;25.51;100.00;99536.03;5044417;28;19928;-77
2023/06/16 10:28:30;;;;;;;;;;;;;;;25.58;100.00;99542.16;5044506;28;19928;-79
2023/06/16 10:30:56;;;;;;;;;;;;;;;25.62;100.00;99540.63;5041981;28;19928;-78
2023/06/16 10:33:47;;;;;;;;;;;;;;;25.67;100.00;99540.75;5040106;28;20368;-76
2023/06/16 10:36:33;;;;;;;;;;;;;;;25.72;100.00;99536.47;5024485;28;20273;-76
2023/06/16 10:39:34;;;;;;;;;;;;;;;25.75;100.00;99526.00;5021001;28;19921;-79
2023/06/16 10:42:00;;;;;;;;;;;;;;;25.77;100.00;99520.34;4949496;28;19929;-78
2023/06/16 10:44:28;;;;;;;;;;;;;;;25.80;100.00;99519.88;4943124;29;19926;-78
2023/06/16 10:47:09;;;;;;;;;;;;;;;25.87;100.00;99512.44;4963895;28;19969;-78
2023/06/16 10:49:43;;;;;;;;;;;;;;;25.91;100.00;99513.59;4947712;28;20307;-77
2023/06/16 10:52:08;;;;;;;;;;;;;;;25.94;98.67;99518.50;4959331;28;19926;-78
2023/06/16 10:54:36;;;;;;;6.32;5.72;;;;;;;25.97;98.41;99518.03;4959798;28;20418;-78
2023/06/16 10:57:03;;;;;;;6.85;5.70;;;;;;;26.04;96.43;99515.97;4960966;28;20197;-78
2023/06/16 10:59:30;;;;;;;6.43;5.72;;;;;;;26.09;92.72;99511.47;4963257;28;20369;-78
2023/06/16 11:01:59;;;;;;;;;;;;;;;26.10;93.58;99515.81;4963780;28;20554;-78
2023/06/16 11:04:24;;;;;;;;;;;;;;;26.14;94.66;99513.47;4957088;28;19930;-78
2023/06/16 11:07:07;;;;;;;;;;;;;;;26.15;93.76;99511.59;4963546;28;19929;-79
2023/06/16 11:09:32;;;;;;;;;;;;;;;26.19;93.40;99510.03;4955585;28;19921;-78
2023/06/16 11:12:00;;;;;;;;;;;;;;;26.22;93.37;99515.75;4959229;28;19918;-78
2023/06/16 11:14:25;;;;;;;;;;;;;;;26.27;93.48;99506.94;4941431;29;20018;-78
2023/06/16 11:16:51;;;;;;;;;;;;;;;26.32;91.82;99505.16;4977575;28;19917;-78
2023/06/16 11:19:20;;;;;;;;;;;;;;;26.32;90.27;99502.44;5024867;28;19916;-78
2023/06/16 11:21:45;;;;;;;;;;;;;;;26.35;90.53;99510.03;5036673;28;19917;-78
2023/06/16 11:24:12;;;;;;;;;;;;;;;26.41;90.89;99498.25;5043029;28;19917;-78
2023/06/16 11:26:37;;;;;;;;;;;;;;;26.51;89.46;99502.97;5043469;28;19917;-78
2023/06/16 11:29:05;;;;;;;;;;;;;;;26.60;89.21;99497.97;5036728;28;20004;-79
2023/06/16 11:31:31;;;;;;;;;;;;;;;26.69;87.71;99504.59;5038539;28;19921;-79
2023/06/16 11:33:56;;;;;;;;;;;;;;;26.76;83.17;99491.72;5043839;28;19913;-78
2023/06/16 11:36:22;;;;;;;;;;;;;;;26.82;84.60;99493.41;5037052;28;19969;-78
2023/06/16 11:38:49;;;;;;;;;;;;;;;26.78;83.07;99503.13;5042647;28;19924;-79